Terminal Aerodrome Forecast
Issued by NWS

Home | Current Version | Previous Version | Text Only | Print | Product List | Glossary On
Versions: 1 2 3 4 5 6 7 8 9 10 11 12 13 14 15 16 17 18 19 20 21 22 23 24 25 26
000
FTUS46 KSEW 030500
TAFSEA
TAF
KSEA 030524Z 0306/0412 VRB05KT P6SM VCSH SCT015 OVC025
      TEMPO 0306/0308 3SM -SHRA BKN015
     FM030800 18004KT P6SM VCSH OVC020
     FM031200 18004KT P6SM OVC012
     FM031800 23005KT P6SM BKN030
     FM032100 27004KT P6SM SCT040
     FM040000 33006KT P6SM FEW060=

USA.gov is the U.S. government's official web portal to all federal, state and local government web resources and services.